deformed-offering

Current conditions - KSJC (San Jose International)


Coded METAR: 2017/12/14 17:53 KSJC 141753Z 00000KT 7SM FEW100 12/03 A3014 RMK AO2 SLP204 T01170033 10117 20039 51018

Weather Report

Report issued: Thu 14th Dec at 09:53 PST

Wind: calm 0 knots (0 mph, 0 kph, Force 0)
Visibility: 7 statute miles
Cloud: a few clouds at 10000 feet
Temperature: 54F / 12C
Dewpoint: 37F / 3C
Humidity: 54%
Pressure: 30.14 inches of mercury

Current conditions - KNUQ (Moffett NAS)


Coded METAR: 2017/12/14 17:56 KNUQ 141756Z 00000KT 9SM CLR 11/06 A3014 RMK AO2 SLP209 T01110056 10117 20033 51018

Weather Report

Report issued: Thu 14th Dec at 09:56 PST

Wind: calm 0 knots (0 mph, 0 kph, Force 0)
Visibility: 9 statute miles
Cloud: Sky clear
Temperature: 52F / 11C
Dewpoint: 43F / 6C
Humidity: 71%
Pressure: 30.14 inches of mercury

Current conditions - KRHV (Reid-Hillview Airport - San Jose)


Coded METAR: 2017/12/14 17:47 KRHV 141747Z 00000KT 10SM SKC 11/04 A3012

Weather Report

Report issued: Thu 14th Dec at 09:47 PST

Wind: calm 0 knots (0 mph, 0 kph, Force 0)
Visibility: 10 statute miles
Cloud: Sky clear
Temperature: 52F / 11C
Dewpoint: 39F / 4C
Humidity: 62%
Pressure: 30.12 inches of mercury

Current conditions - KPAO (Palo Alto Airport)


Coded METAR: 2017/12/14 17:47 KPAO 141747Z 00000KT 10SM SKC 11/07 A3014

Weather Report

Report issued: Thu 14th Dec at 09:47 PST

Wind: calm 0 knots (0 mph, 0 kph, Force 0)
Visibility: 10 statute miles
Cloud: Sky clear
Temperature: 52F / 11C
Dewpoint: 45F / 7C
Humidity: 76%
Pressure: 30.14 inches of mercury

 

deformed-offering